METAR Data
IDs: Format: Raw Decoded Include TAF

Data at: 1635 UTC 21 Sep 2018

KMSS 211553Z AUTO 20014G26KT 10SM CLR 22/21 A2981 RMK AO2 PK WND 21026/1551 RAE02 SLP094 P0000 T02220211
KMSS 211453Z AUTO 19010KT 10SM -RA FEW031 BKN043 BKN060 19/19 A2985 RMK AO2 LTG DSNT E RAE41B52 TSB08E39 SLP108 P0024 60042 T01940194 56020
KMSS 211450Z AUTO 19010KT 10SM FEW017 SCT031 BKN043 19/19 A2985 RMK AO2 LTG DSNT E RAE41 TSB08E39 P0024
KMSS 211439Z AUTO 17008KT 10SM VCTS -RA FEW019 BKN031 OVC046 19/19 A2986 RMK AO2 LTG DSNT E TSB08E39 P0024 T01940194
KMSS 211428Z AUTO 17008KT 5SM -TSRA BR FEW015 BKN029 OVC033 19/19 A2987 RMK AO2 LTG DSNT NE AND E TSB08 P0024 T01890189
KMSS 211421Z AUTO 14006KT 1 3/4SM TSRA BR BKN023 OVC031 19/19 A2987 RMK AO2 VIS 1/2V5 LTG DSNT NE TSB08 PRESFR P0023 T01890189
KMSS 211418Z AUTO 13007KT 3/4SM TSRA BR SCT021 BKN026 OVC031 19/19 A2987 RMK AO2 LTG DSNT N AND NE TSB08 P0023 T01890189
KMSS 211410Z AUTO 00000KT 1 1/4SM +TSRA BR SCT021 OVC029 19/19 A2989 RMK AO2 LTG DSNT W-NE TSB08 P0012 T01890189
KMSS 211408Z AUTO 00000KT 3SM TSRA BR SCT023 OVC031 19/19 A2989 RMK AO2 LTG DSNT W-NE TSB08 P0004 T01890189
KMSS 211353Z AUTO 17007KT 10SM VCTS -RA OVC029 19/19 A2989 RMK AO2 LTG DSNT ALQDS RAE00B13 TSB35E50 SLP122 P0014 T01940189
KMSS 211340Z AUTO 17007KT 3SM TSRA BR OVC029 19/19 A2989 RMK AO2 LTG DSNT ALQDS RAE00B13 TSB35 P0013 T01940189
KMSS 211333Z AUTO 17008KT 4SM VCTS RA BR BKN029 OVC045 19/19 A2989 RMK AO2 LTG DSNT S-NW RAE00B13 P0011 T01940189
KMSS 211326Z AUTO 18005KT 2 1/2SM VCTS RA BR BKN029 BKN037 OVC047 19/19 A2990 RMK AO2 LTG DSNT SE-W RAE00B13 P0009 T01940189
KMSS 211319Z AUTO 20009G19KT 2 1/2SM VCTS +RA BR SCT029 BKN036 OVC047 19/19 A2991 RMK AO2 VIS 1 1/2V5 LTG DSNT ALQDS RAE00B13 P0006 T01940189
KMSS 211303Z AUTO 19013G23KT 10SM FEW012 BKN038 OVC070 19/19 A2991 RMK AO2 LTG DSNT SE AND S RAE00 P0000 T01940189
KMSS 211253Z AUTO 19013G17KT 9SM VCTS -RA SCT014 BKN044 OVC100 19/19 A2991 RMK AO2 LTG DSNT ALQDS SLP128 P0004 T01940189
KMSS 211246Z AUTO 18010KT 8SM VCTS -RA SCT011 BKN028 OVC110 19/19 A2991 RMK AO2 LTG DSNT S-NW P0004 T01890189
KMSS 211233Z AUTO 19009KT 5SM VCTS RA BR SCT021 BKN080 OVC110 19/18 A2992 RMK AO2 LTG DSNT S-W P0003 T01890183
KMSS 211153Z AUTO 16007KT 10SM -RA OVC034 18/17 A2993 RMK AO2 LTG DSNT S TSE1058 SLP136 P0004 60045 70046 T01780172 10178 20139 56041
KMSS 211058Z AUTO 14007KT 5SM -RA BR FEW013 BKN035 OVC050 16/16 A2996 RMK AO2 TSE58 PRESFR P0002 T01560156
KMSS 211049Z AUTO 12009KT 2 1/2SM +TSRA BR SCT013 BKN035 OVC050 15/15 A2997 RMK AO2 VIS 1 1/2V5 TSB43 SLP151 P0029 T01500150
KMSS 211048Z AUTO 13009KT 2 1/2SM +TSRA BR SCT013 BKN035 OVC048 15/15 A2998 RMK AO2 VIS 1 1/2V5 TSB43 P0027
KMSS 211033Z AUTO 35008KT 9SM VCTS -RA BKN014 BKN027 OVC046 14/14 A3000 RMK AO2 LTG DSNT N AND W P0007 T01440144
KMSS 210953Z AUTO 07004KT 10SM -RA BKN028 BKN040 BKN110 14/14 A3001 RMK AO2 SLP162 P0011 T01390139
KMSS 210853Z AUTO 08006KT 10SM -RA BKN042 OVC055 15/13 A3005 RMK AO2 RAB49 SLP177 P0001 60001 T01500133 56029
KMSS 210753Z AUTO 06007KT 10SM OVC050 14/13 A3008 RMK AO2 SLP186 T01440128
KMSS 210653Z AUTO 06008KT 10SM OVC060 14/13 A3010 RMK AO2 SLP194 T01440128
KMSS 210553Z AUTO 07006KT 10SM OVC100 14/13 A3014 RMK AO2 RAE0456 SLP206 P0000 60000 T01440128 10150 20139 58026
KMSS 210453Z AUTO 06004KT 10SM -RA FEW070 SCT085 BKN120 14/12 A3017 RMK AO2 RAB0358E09B46 SLP218 P0000 T01390122 401670044
KMSS 210353Z AUTO 08006KT 10SM FEW039 SCT120 14/12 A3019 RMK AO2 SLP225 T01440122
KMSS 210253Z AUTO 06005KT 10SM BKN120 14/12 A3022 RMK AO2 SLP234 T01440122 57002
KMSS 210153Z AUTO 06007KT 10SM SCT120 14/12 A3022 RMK AO2 SLP234 T01440122
KMSS 210053Z AUTO 07007KT 10SM CLR 15/12 A3022 RMK AO2 SLP236 T01500122
KMSS 202353Z AUTO 06005KT 10SM CLR 14/12 A3022 RMK AO2 SLP236 T01440122 10167 20144 58002
KMSS 202253Z AUTO 07004KT 10SM CLR 15/12 A3022 RMK AO2 SLP236 T01500122
KMSS 202153Z AUTO 07003KT 10SM CLR 16/12 A3024 RMK AO2 SLP240 T01560122
KMSS 202053Z AUTO 07006KT 10SM CLR 16/12 A3023 RMK AO2 SLP238 T01610122 58006
KMSS 201953Z AUTO 08009KT 10SM CLR 17/12 A3023 RMK AO2 SLP237 T01670117
KMSS 201853Z AUTO 04009KT 10SM BKN100 16/12 A3025 RMK AO2 SLP246 T01610117
KMSS 201753Z AUTO 04007KT 10SM FEW022 SCT110 17/12 A3025 RMK AO2 SLP244 60001 T01670117 10167 20100 56003
KMSS 201653Z AUTO 04007KT 10SM CLR 16/13 A3025 RMK AO2 SLP245 T01560128
KMSS 201553Z AUTO 04009KT 10SM FEW046 SCT090 BKN110 14/13 A3024 RMK AO2 RAB36E51 SLP244 P0000 T01390128
KMSS 201453Z AUTO 08004KT 8SM CLR 12/12 A3025 RMK AO2 SLP247 60001 T01220122 50003
KMSS 201432Z AUTO 07004KT 8SM SCT005 12/12 A3026 RMK AO2 T01170117
KMSS 201353Z AUTO 10006KT 8SM BKN004 11/11 A3026 RMK AO2 RAE21 SLP248 P0001 T01110111
KMSS 201253Z AUTO 11004KT 10SM -RA BKN006 OVC100 11/11 A3026 RMK AO2 RAB25 SLP250 P0000 T01060106
KMSS 201212Z AUTO 07007KT 10SM FEW006 BKN110 10/10 A3024 RMK AO2 T01000100
KMSS 201153Z AUTO 08008KT 10SM BKN120 11/11 A3024 RMK AO2 SLP243 T01060106 10111 20044 50021
KMSS 201053Z AUTO 03003KT 10SM CLR 09/09 A3025 RMK AO2 SLP244 T00890089
KMSS 200953Z AUTO 00000KT 10SM CLR 07/07 A3023 RMK AO2 PRESRR SLP240 T00670067 $
KMSS 200853Z AUTO 00000KT 10SM CLR 06/06 A3018 RMK AO2 SLP222 T00560056 51005 $
KMSS 200825Z AUTO 04003KT 5SM BR FEW001 05/05 A3017 RMK AO2 T00500050 $
KMSS 200811Z AUTO 00000KT 9SM BKN001 06/06 A3016 RMK AO2 T00560056 $
KMSS 200804Z AUTO 00000KT 2SM BR BKN001 06/06 A3017 RMK AO2 T00610061 $
KMSS 200753Z AUTO 00000KT 1/4SM FG VV001 06/06 A3017 RMK AO2 SLP220 T00560056 $
KMSS 200748Z AUTO 00000KT 1/2SM FG VV001 06/06 A3017 RMK AO2 $
KMSS 200740Z AUTO 00000KT 1 1/4SM BR BKN001 06/06 A3017 RMK AO2 VIS 1/2V5 T00560056 $
KMSS 200733Z AUTO 00000KT 2 1/2SM BR BKN001 05/05 A3017 RMK AO2 VIS 1V5 T00500050 $
KMSS 200723Z AUTO 00000KT 1 1/2SM BR BKN001 06/06 A3017 RMK AO2 T00610056 $
KMSS 200719Z AUTO 00000KT 1 1/4SM BR SCT001 05/05 A3017 RMK AO2 VIS 1/2V4 T00500050 $
KMSS 200704Z AUTO 00000KT 3/4SM BR VV001 05/05 A3018 RMK AO2 T00500050 $
KMSS 200701Z AUTO 00000KT 1 1/2SM BR SCT001 06/06 A3017 RMK AO2 T00560056 $
KMSS 200657Z AUTO 00000KT 5SM BR SCT001 06/06 A3017 RMK AO2 T00610061 $
KMSS 200655Z AUTO 00000KT 1 3/4SM BR SCT001 06/06 A3017 RMK AO2 T00610061 $
KMSS 200653Z AUTO 00000KT 1SM BR VV001 06/06 A3017 RMK AO2 SLP217 T00610061 $
KMSS 200646Z AUTO 00000KT 3/4SM BR VV001 06/06 A3017 RMK AO2 VIS 1/2V5 T00560056 $
KMSS 200642Z AUTO 00000KT 1 3/4SM BR OVC001 06/06 A3017 RMK AO2 T00610061 $
KMSS 200631Z AUTO 00000KT 5SM BR OVC001 07/07 A3016 RMK AO2 T00670067 $
KMSS 200629Z AUTO 00000KT 1 1/2SM BR OVC001 07/07 A3017 RMK AO2 T00670067 $
KMSS 200553Z AUTO 00000KT 1/4SM FG VV001 07/07 A3016 RMK AO2 SLP217 T00670067 10128 20067 56002 $
KMSS 200540Z AUTO 00000KT 3/4SM BR VV001 07/07 A3017 RMK AO2 T00720072 $
KMSS 200453Z AUTO 00000KT 10SM CLR 08/08 A3017 RMK AO2 SLP220 T00830078 401780067